Pfafftown, North Carolina
Current Conditions -  °F | °C
As of 2:54 PM on Friday 24 Oct 2014 (Local Time) from KINT Reporting Station
Clear Clear  
Wind Chill: 65°   Ceiling: Unl
Heat Index: 65°   Visibility: 10mi
Dew Point: 35°   Wind: 3mph
Humidity: 33%   Direction: 250°WSW
Pressure: 30"   Gusts: NA
Location:  36.17°N, 80.38°W
Report Text: KINT 241854Z 25003KT 10SM CLR 18/02 A3000 RMK AO2 SLP154 T01830017
Loading
Personal Weather Stations






























Interactive Weather Map
Tropical Storm Tracking
New forecast layout! Learn more

10-Day Weather Forecast

Advertisements
Track Severe Weather on mobile